Gladney Airport

Jump to: basic info | weather | comments

Related pages: nearby airports | nearby navaids | notams | map

Basic information (top)

Codes: 7LA4
Location: lon 30.125200, lat -92.219597, elev 23 ft / 7 m msl
Status: small_airport

Weather (top)

Current conditions for Abbeville Chris Crusta Memorial Airport 11nm (21km) SE (rec'd 2011/08/25 15:55Z):

K0R3 251555Z AUTO 36005KT 10SM 30/25 A2996 RMK AO2

Airport forecast for Lafayette Regional Airport 13nm (24km) ENE (rec'd 2015/03/02 18:03Z):

TAF KLFT 021758Z 0218/0318 07003KT 1SM BR VCSH OVC002 
      TEMPO 0218/0222 3SM BR OVC006 
     FM022200 09006KT 4SM BR VCSH OVC006 
      TEMPO 0222/0302 1SM BR OVC002 
     FM030200 05004KT 3SM BR OVC002 
     FM030500 12003KT 1SM BR OVC002 
     FM030800 15003KT 1/4SM FG VV001

Latest comments (top)

No comments yet for Gladney Airport

More... (top)

See also NOTAMs and nearby airports and navaids, or visit the Gladney Airport page at the main OurAirports website..